Time;durP1;ratioP1;P1;durP2;ratioP2;P2;SDS_P1;SDS_P2;PMS_P1;PMS_P2;Temp;Humidity;BMP_temperature;BMP_pressure;BME280_temperature;BME280_humidity;BME280_pressure;Samples;Min_cycle;Max_cycle;Signal;HPM_P1;HPM_P2
2022/10/29 00:02:07;;;;;;;1.07;0.40;;;22.30;48.40;;;;;;4996938;28;20389;-89
2022/10/29 00:04:34;;;;;;;0.95;0.40;;;22.40;47.90;;;;;;4990583;28;20524;-87
2022/10/29 00:07:01;;;;;;;2.65;0.50;;;22.50;47.50;;;;;;4992908;28;20389;-87
2022/10/29 00:09:28;;;;;;;0.50;0.40;;;22.50;46.90;;;;;;4991386;28;20468;-89
2022/10/29 00:11:55;;;;;;;2.40;0.40;;;22.60;47.70;;;;;;5007833;28;20397;-87
2022/10/29 00:14:22;;;;;;;1.45;0.45;;;22.60;49.70;;;;;;4984303;28;20409;-86
2022/10/29 00:16:49;;;;;;;1.10;0.40;;;22.70;46.70;;;;;;5002669;28;20502;-86
2022/10/29 00:19:16;;;;;;;1.10;0.50;;;22.80;48.20;;;;;;4990692;28;20392;-88
2022/10/29 00:21:43;;;;;;;0.63;0.50;;;22.90;46.30;;;;;;4993573;28;20873;-86
2022/10/29 00:24:10;;;;;;;1.63;0.33;;;23.10;48.90;;;;;;4991631;28;20396;-89
2022/10/29 00:26:37;;;;;;;1.60;0.40;;;23.30;48.80;;;;;;4993051;28;20881;-88
2022/10/29 00:29:04;;;;;;;0.75;0.40;;;24.40;46.90;;;;;;4991338;28;20404;-88
2022/10/29 00:31:31;;;;;;;0.80;0.40;;;23.60;47.00;;;;;;4991522;28;20373;-86
2022/10/29 00:33:58;;;;;;;1.40;0.40;;;23.70;45.90;;;;;;4991631;28;20391;-87
2022/10/29 00:36:28;;;;;;;1.55;0.40;;;23.40;45.90;;;;;;4987807;28;20400;-88
2022/10/29 00:38:55;;;;;;;0.63;0.30;;;23.20;44.70;;;;;;5006513;28;20891;-87
2022/10/29 00:41:28;;;;;;;0.65;0.40;;;23.20;44.30;;;;;;4997352;28;20915;-89
2022/10/29 00:44:22;;;;;;;0.65;0.40;;;23.30;47.70;;;;;;4994037;28;20397;-85
2022/10/29 00:47:03;;;;;;;0.63;0.40;;;23.60;43.60;;;;;;4988506;28;20384;-87
2022/10/29 00:49:34;;;;;;;0.98;0.30;;;23.80;43.90;;;;;;4996832;28;20470;-86
2022/10/29 00:52:04;;;;;;;0.90;0.20;;;23.80;43.00;;;;;;5000194;28;20427;-85
2022/10/29 00:54:37;;;;;;;2.20;0.40;;;23.70;43.40;;;;;;5000886;28;20381;-86
2022/10/29 00:57:10;;;;;;;0.40;0.30;;;23.70;45.00;;;;;;5001766;28;20404;-85
2022/10/29 00:59:37;;;;;;;1.00;0.50;;;23.80;42.70;;;;;;5002710;28;20451;-86
2022/10/29 01:02:04;;;;;;;1.45;0.82;;;23.70;41.00;;;;;;4999884;28;20385;-85
2022/10/29 01:04:32;;;;;;;2.57;0.50;;;23.70;43.00;;;;;;5002170;28;20400;-86
2022/10/29 01:06:59;;;;;;;0.98;0.50;;;23.90;44.00;;;;;;4999883;28;20426;-87
2022/10/29 01:09:26;;;;;;;0.90;0.43;;;23.80;43.70;;;;;;5001225;28;20392;-86
2022/10/29 01:12:08;;;;;;;1.40;0.50;;;23.80;45.40;;;;;;5014210;28;20389;-87
2022/10/29 01:15:12;;;;;;;0.38;0.30;;;24.30;42.70;;;;;;5001326;28;20388;-85
2022/10/29 01:17:38;;;;;;;1.63;0.47;;;24.50;41.90;;;;;;4981994;28;20415;-86
2022/10/29 01:20:27;;;;;;;1.83;0.80;;;24.60;41.00;;;;;;4982910;28;20443;-85
2022/10/29 01:23:21;;;;;;;3.60;0.60;;;24.80;44.30;;;;;;5000899;28;20385;-85
2022/10/29 01:26:03;;;;;;;1.23;0.57;;;25.00;43.50;;;;;;4989690;28;20455;-88
2022/10/29 01:28:58;;;;;;;1.23;0.30;;;25.20;42.80;;;;;;5000049;28;20420;-86
2022/10/29 01:32:00;;;;;;;0.68;0.30;;;25.60;41.40;;;;;;5002153;28;20377;-92
2022/10/29 01:34:37;;;;;;;2.13;0.43;;;25.60;41.40;;;;;;4996930;28;20470;-89
2022/10/29 01:37:39;;;;;;;1.00;0.40;;;25.70;40.10;;;;;;4997659;28;20404;-88
2022/10/29 01:40:23;;;;;;;0.70;0.32;;;26.00;41.50;;;;;;4992530;28;20388;-83
2022/10/29 01:42:58;;;;;;;2.93;0.40;;;26.30;39.40;;;;;;5005509;28;20389;-89
2022/10/29 01:45:34;;;;;;;0.57;0.30;;;26.40;39.40;;;;;;5010019;28;20391;-86
2022/10/29 01:48:10;;;;;;;0.30;0.30;;;26.50;40.00;;;;;;4994023;28;20385;-85
2022/10/29 01:50:42;;;;;;;0.50;0.40;;;26.60;38.30;;;;;;5013895;28;20427;-89
2022/10/29 01:53:10;;;;;;;0.85;0.30;;;26.70;38.30;;;;;;5012539;28;20396;-87
2022/10/29 01:55:37;;;;;;;0.70;0.30;;;26.70;37.50;;;;;;5010910;28;20528;-85
2022/10/29 01:58:09;;;;;;;2.72;0.40;;;27.10;39.00;;;;;;5007815;28;20436;-86
2022/10/29 02:00:49;;;;;;;0.80;0.40;;;27.50;41.00;;;;;;5010044;28;20805;-87
2022/10/29 02:03:39;;;;;;;0.50;0.40;;;27.80;40.20;;;;;;5012792;28;20417;-86
2022/10/29 02:06:32;;;;;;;1.63;0.30;;;27.70;39.40;;;;;;5009966;28;20416;-86
2022/10/29 02:09:16;;;;;;;0.70;0.30;;;27.70;39.10;;;;;;4990310;28;20391;-86
2022/10/29 02:12:19;;;;;;;0.40;0.40;;;27.90;39.30;;;;;;4995605;28;20391;-84
2022/10/29 02:14:52;;;;;;;1.20;0.40;;;28.10;38.20;;;;;;4990653;28;20371;-84
2022/10/29 02:17:19;;;;;;;0.30;0.30;;;27.90;37.80;;;;;;4993120;28;20457;-86
2022/10/29 02:19:46;;;;;;;1.17;0.50;;;27.70;38.40;;;;;;4991837;28;20929;-88
2022/10/29 02:22:16;;;;;;;0.73;0.50;;;27.90;38.10;;;;;;4993471;28;20395;-87
2022/10/29 02:24:43;;;;;;;0.73;0.40;;;27.90;38.40;;;;;;5007510;28;20405;-86
2022/10/29 02:27:10;;;;;;;2.58;0.60;;;28.20;37.80;;;;;;4991632;28;20399;-88
2022/10/29 02:29:37;;;;;;;0.73;0.30;;;28.00;37.90;;;;;;4993484;28;20425;-88
2022/10/29 02:32:04;;;;;;;1.33;0.28;;;28.00;37.60;;;;;;4992055;28;20421;-87
2022/10/29 02:34:31;;;;;;;0.90;0.30;;;28.00;38.10;;;;;;4992925;28;20402;-86
2022/10/29 02:36:58;;;;;;;0.80;0.30;;;28.40;36.90;;;;;;4993150;28;20430;-86
2022/10/29 02:39:29;;;;;;;2.05;0.40;;;28.60;36.70;;;;;;4992162;28;20422;-90
2022/10/29 02:41:56;;;;;;;1.85;0.35;;;28.30;37.80;;;;;;4993753;28;20386;-88
2022/10/29 02:44:23;;;;;;;0.30;0.30;;;28.10;37.10;;;;;;4993736;28;20402;-89
2022/10/29 02:46:50;;;;;;;2.30;0.50;;;28.30;37.30;;;;;;4993394;28;20371;-88
2022/10/29 02:49:18;;;;;;;3.70;0.52;;;28.80;36.00;;;;;;4993735;28;20379;-87
2022/10/29 02:51:45;;;;;;;0.60;0.30;;;28.80;35.80;;;;;;5010613;28;20409;-89
2022/10/29 02:54:12;;;;;;;1.38;0.40;;;28.90;35.30;;;;;;5004231;28;20385;-89
2022/10/29 02:56:40;;;;;;;2.50;0.30;;;29.00;34.70;;;;;;4993959;28;20402;-86
2022/10/29 02:59:08;;;;;;;0.73;0.40;;;29.00;34.80;;;;;;4991305;28;20892;-86
2022/10/29 03:01:37;;;;;;;1.20;0.30;;;29.10;34.00;;;;;;5003188;28;20393;-87
2022/10/29 03:04:07;;;;;;;0.70;0.30;;;28.90;34.00;;;;;;4999407;28;20880;-89
2022/10/29 03:06:37;;;;;;;0.40;0.30;;;28.80;34.60;;;;;;4998476;28;20368;-83
2022/10/29 03:09:05;;;;;;;0.80;0.38;;;28.80;34.30;;;;;;5000520;28;20380;-87
2022/10/29 03:11:33;;;;;;;1.27;0.30;;;28.50;33.70;;;;;;5002154;28;20412;-87
2022/10/29 03:14:02;;;;;;;0.68;0.40;;;28.90;35.60;;;;;;4998173;28;20381;-83
2022/10/29 03:16:31;;;;;;;1.10;0.30;;;29.50;32.70;;;;;;4993365;28;20408;-86
2022/10/29 03:18:58;;;;;;;0.70;0.38;;;29.00;32.70;;;;;;4987818;28;20761;-83
2022/10/29 03:21:25;;;;;;;0.60;0.22;;;28.50;33.00;;;;;;4999908;28;20461;-84
2022/10/29 03:23:52;;;;;;;0.30;0.30;;;28.70;33.60;;;;;;4997273;28;20742;-82
2022/10/29 03:26:19;;;;;;;1.05;0.30;;;28.90;33.20;;;;;;4996475;28;20380;-80
2022/10/29 03:28:46;;;;;;;0.50;0.30;;;28.80;33.40;;;;;;4999082;28;20938;-84
2022/10/29 03:31:13;;;;;;;0.35;0.35;;;28.40;32.70;;;;;;4996695;28;20427;-83
2022/10/29 03:33:41;;;;;;;0.63;0.30;;;28.30;33.00;;;;;;5012377;28;20402;-84
2022/10/29 03:36:09;;;;;;;0.70;0.43;;;28.30;33.10;;;;;;5015589;28;20407;-81
2022/10/29 03:38:36;;;;;;;0.90;0.30;;;28.70;33.90;;;;;;5010127;28;20411;-83
2022/10/29 03:41:07;;;;;;;0.65;0.30;;;28.80;33.60;;;;;;5018078;28;20375;-81
2022/10/29 03:43:39;;;;;;;0.57;0.30;;;29.20;34.30;;;;;;5007319;28;20389;-84
2022/10/29 03:46:07;;;;;;;1.83;0.30;;;29.50;32.70;;;;;;4994227;28;20376;-82
2022/10/29 03:48:34;;;;;;;0.85;0.30;;;29.90;32.90;;;;;;4995999;28;20488;-81
2022/10/29 03:51:07;;;;;;;1.05;0.50;;;30.00;32.30;;;;;;4995940;28;20753;-84
2022/10/29 03:53:35;;;;;;;0.80;0.30;;;30.00;33.30;;;;;;5005002;28;20402;-83
2022/10/29 03:56:04;;;;;;;0.70;0.43;;;30.30;34.00;;;;;;5014883;28;20371;-82
2022/10/29 03:58:31;;;;;;;0.88;0.40;;;30.50;34.20;;;;;;5002944;28;20410;-81
2022/10/29 04:01:10;;;;;;;0.30;0.30;;;30.90;33.60;;;;;;5003311;28;20381;-84
2022/10/29 04:03:45;;;;;;;1.02;0.35;;;30.90;33.60;;;;;;4998256;28;20385;-82
2022/10/29 04:06:14;;;;;;;1.27;0.40;;;30.80;34.00;;;;;;4996921;28;20389;-85
2022/10/29 04:08:45;;;;;;;1.30;0.40;;;30.30;34.80;;;;;;5000090;28;20435;-84
2022/10/29 04:11:13;;;;;;;0.63;0.40;;;30.00;35.00;;;;;;4995895;28;20381;-85
2022/10/29 04:13:40;;;;;;;1.65;0.50;;;30.10;34.80;;;;;;4991762;28;20373;-86
2022/10/29 04:16:08;;;;;;;0.90;0.40;;;30.10;34.90;;;;;;4991473;28;20381;-86
2022/10/29 04:18:35;;;;;;;0.75;0.40;;;30.10;34.70;;;;;;4991257;28;20392;-85
2022/10/29 04:21:02;;;;;;;1.40;0.47;;;29.80;35.20;;;;;;4991748;28;20381;-83
2022/10/29 04:23:29;;;;;;;1.52;0.50;;;30.10;36.30;;;;;;4993922;28;20483;-83
2022/10/29 04:25:57;;;;;;;0.77;0.30;;;30.30;35.60;;;;;;4995152;28;20380;-86
2022/10/29 04:28:25;;;;;;;1.25;0.50;;;29.90;34.50;;;;;;4995277;28;20385;-82
2022/10/29 04:30:53;;;;;;;1.50;0.43;;;29.80;35.90;;;;;;4995065;28;20385;-84
2022/10/29 04:33:20;;;;;;;2.37;0.40;;;29.60;35.10;;;;;;4994770;28;20393;-84
2022/10/29 04:35:55;;;;;;;2.17;0.50;;;29.30;36.10;;;;;;4994640;28;20377;-83
2022/10/29 04:38:22;;;;;;;1.95;0.52;;;28.80;36.40;;;;;;4994700;28;20405;-85
2022/10/29 04:40:49;;;;;;;0.93;0.50;;;29.10;36.50;;;;;;4994723;28;20373;-88
2022/10/29 04:43:16;;;;;;;2.60;0.40;;;29.70;35.70;;;;;;4994849;28;20392;-84
2022/10/29 04:45:44;;;;;;;1.10;0.40;;;29.40;35.00;;;;;;4994978;28;20392;-82
2022/10/29 04:48:11;;;;;;;1.73;0.50;;;29.60;36.00;;;;;;4991374;28;20426;-81
2022/10/29 04:50:38;;;;;;;0.77;0.40;;;30.00;36.60;;;;;;4992488;28;20849;-81
2022/10/29 04:53:07;;;;;;;1.50;0.50;;;29.50;35.90;;;;;;4994238;28;20865;-82
2022/10/29 04:55:37;;;;;;;1.35;0.40;;;29.20;36.70;;;;;;4993854;28;20462;-81
2022/10/29 04:58:11;;;;;;;1.05;0.40;;;29.40;36.80;;;;;;4994707;28;20483;-86
2022/10/29 05:00:38;;;;;;;0.60;0.47;;;29.20;36.20;;;;;;4994426;28;20463;-82
2022/10/29 05:03:05;;;;;;;1.15;0.50;;;28.80;37.90;;;;;;4994093;28;20388;-82
2022/10/29 05:05:33;;;;;;;1.88;0.55;;;28.80;37.80;;;;;;4993972;28;20731;-80
2022/10/29 05:08:04;;;;;;;1.25;0.43;;;29.20;37.80;;;;;;4992986;28;20913;-86
2022/10/29 05:10:34;;;;;;;1.00;0.50;;;29.60;37.40;;;;;;4993843;28;20745;-83
2022/10/29 05:13:04;;;;;;;1.20;0.60;;;29.80;36.40;;;;;;4993740;28;20491;-84
2022/10/29 05:15:31;;;;;;;1.75;0.60;;;29.90;37.30;;;;;;4993729;28;20449;-81
2022/10/29 05:17:59;;;;;;;1.23;0.45;;;30.10;36.60;;;;;;4993969;28;20451;-81
2022/10/29 05:20:26;;;;;;;0.57;0.40;;;30.00;36.90;;;;;;4993326;28;20999;-81
2022/10/29 05:23:04;;;;;;;2.13;0.50;;;29.60;36.50;;;;;;4993574;28;20497;-84
2022/10/29 05:25:33;;;;;;;0.95;0.47;;;29.20;37.00;;;;;;4993710;28;20373;-81
2022/10/29 05:28:04;;;;;;;1.10;0.60;;;29.10;37.80;;;;;;4993501;28;20399;-82
2022/10/29 05:30:31;;;;;;;3.67;0.90;;;29.20;37.80;;;;;;4993398;28;20384;-81
2022/10/29 05:32:58;;;;;;;0.57;0.50;;;29.40;37.60;;;;;;4993634;28;20385;-82
2022/10/29 05:35:26;;;;;;;1.98;0.60;;;29.60;36.50;;;;;;4991804;28;20393;-82
2022/10/29 05:37:54;;;;;;;1.73;0.50;;;29.60;36.30;;;;;;4992644;28;20401;-82
2022/10/29 05:40:23;;;;;;;6.20;0.82;;;29.40;36.50;;;;;;4993830;28;20443;-83
2022/10/29 05:42:50;;;;;;;0.93;0.30;;;29.10;37.40;;;;;;4993459;28;20391;-83
2022/10/29 05:45:17;;;;;;;2.50;0.40;;;28.70;36.40;;;;;;4993493;28;20381;-82
2022/10/29 05:47:44;;;;;;;0.65;0.40;;;28.20;38.10;;;;;;4993341;28;20393;-85
2022/10/29 05:50:12;;;;;;;1.45;0.50;;;28.20;38.10;;;;;;4992734;28;20824;-81
2022/10/29 05:52:40;;;;;;;1.23;0.50;;;28.70;38.90;;;;;;4993264;28;20427;-86
2022/10/29 05:55:07;;;;;;;1.40;0.50;;;28.40;38.30;;;;;;4993683;28;20384;-84
2022/10/29 05:57:34;;;;;;;1.30;0.50;;;28.50;38.10;;;;;;4993192;28;20416;-81
2022/10/29 06:00:01;;;;;;;2.30;0.50;;;28.50;38.40;;;;;;4993089;28;20404;-84
2022/10/29 06:02:28;;;;;;;1.77;0.40;;;28.80;37.20;;;;;;5008066;28;20796;-85
2022/10/29 06:04:55;;;;;;;0.95;0.40;;;28.30;37.10;;;;;;4994145;28;20392;-81
2022/10/29 06:07:22;;;;;;;1.77;0.40;;;27.90;38.50;;;;;;4991324;28;20400;-82
2022/10/29 06:09:49;;;;;;;0.80;0.40;;;27.60;38.20;;;;;;4992439;28;20373;-83
2022/10/29 06:12:16;;;;;;;0.52;0.40;;;27.60;38.40;;;;;;4992686;28;20744;-83
2022/10/29 06:14:43;;;;;;;1.02;0.50;;;27.40;37.60;;;;;;4992745;28;20455;-79
2022/10/29 06:17:10;;;;;;;2.25;0.40;;;26.60;37.90;;;;;;4993105;28;20415;-82
2022/10/29 06:19:37;;;;;;;1.77;0.50;;;27.30;38.90;;;;;;4992630;28;20386;-84
2022/10/29 06:22:04;;;;;;;1.37;0.50;;;27.60;39.20;;;;;;4992896;28;20887;-84
2022/10/29 06:24:31;;;;;;;1.20;0.50;;;27.70;38.70;;;;;;4993336;28;20865;-79
2022/10/29 06:26:58;;;;;;;0.98;0.50;;;27.50;38.20;;;;;;4992559;28;20418;-82
2022/10/29 06:29:25;;;;;;;2.70;0.60;;;27.20;38.30;;;;;;4993701;28;20385;-82
2022/10/29 06:31:52;;;;;;;0.55;0.43;;;26.80;38.70;;;;;;4993044;28;20396;-80
2022/10/29 06:34:19;;;;;;;1.92;0.50;;;27.10;39.10;;;;;;4992842;28;20865;-87
2022/10/29 06:36:46;;;;;;;1.33;0.47;;;27.10;38.00;;;;;;4992647;28;20738;-85
2022/10/29 06:39:13;;;;;;;1.83;0.55;;;26.70;38.50;;;;;;4992629;28;20931;-81
2022/10/29 06:41:40;;;;;;;3.03;0.40;;;26.60;39.30;;;;;;4992956;28;20389;-83
2022/10/29 06:44:07;;;;;;;1.33;0.50;;;26.70;38.30;;;;;;4992952;28;20388;-86
2022/10/29 06:46:34;;;;;;;2.45;0.73;;;26.50;38.70;;;;;;4991623;28;20404;-81
2022/10/29 06:49:01;;;;;;;1.40;0.50;;;26.70;39.00;;;;;;4988629;28;20397;-90
2022/10/29 06:51:28;;;;;;;0.60;0.40;;;26.80;38.60;;;;;;4992069;28;20404;-80
2022/10/29 06:53:56;;;;;;;1.88;0.57;;;26.60;37.90;;;;;;4992688;28;20427;-82
2022/10/29 06:56:23;;;;;;;3.55;0.65;;;26.60;39.30;;;;;;4992539;28;20959;-82
2022/10/29 06:58:50;;;;;;;0.90;0.50;;;26.80;38.80;;;;;;4993945;28;20748;-87
2022/10/29 07:01:17;;;;;;;1.00;0.60;;;26.90;38.80;;;;;;4993115;28;20837;-87
2022/10/29 07:03:43;;;;;;;2.13;0.60;;;26.60;38.40;;;;;;4992913;28;20715;-81
2022/10/29 07:06:10;;;;;;;2.60;0.50;;;26.50;39.20;;;;;;4992975;28;21271;-79
2022/10/29 07:08:37;;;;;;;2.15;0.70;;;26.50;39.00;;;;;;4993036;28;20403;-83
2022/10/29 07:11:06;;;;;;;3.83;0.50;;;26.40;38.60;;;;;;4994323;28;20381;-79
2022/10/29 07:13:33;;;;;;;1.35;0.43;;;26.20;39.00;;;;;;5003333;28;20831;-78
2022/10/29 07:16:00;;;;;;;2.63;0.57;;;25.90;39.20;;;;;;4999459;28;20377;-80
2022/10/29 07:18:27;;;;;;;0.88;0.47;;;25.60;39.50;;;;;;4991729;28;20397;-87
2022/10/29 07:20:54;;;;;;;1.10;0.43;;;25.30;40.20;;;;;;4992824;28;20412;-78
2022/10/29 07:23:21;;;;;;;1.27;0.40;;;24.90;40.10;;;;;;4992699;28;20439;-85
2022/10/29 07:25:51;;;;;;;0.88;0.40;;;24.40;40.30;;;;;;4992432;28;20737;-80
2022/10/29 07:28:20;;;;;;;1.10;0.40;;;24.00;40.30;;;;;;4991288;28;20416;-84
2022/10/29 07:30:48;;;;;;;1.50;0.60;;;23.70;41.00;;;;;;4991739;28;21060;-78
2022/10/29 07:33:15;;;;;;;0.70;0.55;;;23.50;41.70;;;;;;4991275;28;20396;-81
2022/10/29 07:35:43;;;;;;;1.20;0.50;;;23.30;42.10;;;;;;4988998;28;20396;-89
2022/10/29 07:38:11;;;;;;;0.93;0.60;;;23.20;42.00;;;;;;4992017;28;20416;-88
2022/10/29 07:40:56;;;;;;;1.13;0.70;;;23.20;42.80;;;;;;4992013;28;20396;-80
2022/10/29 07:43:23;;;;;;;1.45;0.52;;;23.30;42.60;;;;;;4990471;28;20381;-83
2022/10/29 07:45:51;;;;;;;1.67;0.77;;;23.60;42.50;;;;;;4991179;28;20893;-84
2022/10/29 07:48:21;;;;;;;1.30;0.90;;;23.90;42.10;;;;;;4990892;28;20435;-83
2022/10/29 07:50:48;;;;;;;0.95;0.60;;;24.10;42.10;;;;;;4991236;28;20452;-90
2022/10/29 07:53:16;;;;;;;1.30;0.57;;;24.10;41.30;;;;;;4991630;28;20855;-84
2022/10/29 07:55:43;;;;;;;4.40;2.80;;;23.90;41.40;;;;;;4990754;28;20463;-81
2022/10/29 07:58:11;;;;;;;1.13;0.60;;;23.90;42.30;;;;;;4993311;28;20910;-87
2022/10/29 08:00:40;;;;;;;0.80;0.60;;;23.70;42.70;;;;;;4995148;28;20395;-83
2022/10/29 08:03:09;;;;;;;1.48;1.00;;;23.50;43.20;;;;;;4995319;28;20450;-79
2022/10/29 08:05:36;;;;;;;1.75;1.20;;;23.30;43.40;;;;;;4995763;28;20396;-92
2022/10/29 08:08:04;;;;;;;2.35;0.80;;;22.90;43.60;;;;;;4994638;28;20408;-93
2022/10/29 08:10:33;;;;;;;2.30;0.80;;;22.50;44.30;;;;;;4994234;28;20899;-88
2022/10/29 08:13:01;;;;;;;1.85;0.70;;;22.20;44.80;;;;;;4997574;28;20409;-91
2022/10/29 08:15:30;;;;;;;1.70;0.80;;;22.10;45.40;;;;;;4996279;28;20492;-92
2022/10/29 08:17:57;;;;;;;2.10;0.90;;;21.90;45.70;;;;;;4996109;28;20417;-82
2022/10/29 08:20:27;;;;;;;2.40;0.82;;;21.70;46.60;;;;;;4988648;28;20407;-82
2022/10/29 08:23:00;;;;;;;3.22;1.42;;;21.50;46.60;;;;;;5000568;28;20392;-84
2022/10/29 08:25:27;;;;;;;0.65;0.50;;;21.40;47.10;;;;;;5001650;28;20396;-80
2022/10/29 08:28:02;;;;;;;1.85;0.50;;;21.30;46.80;;;;;;4998745;28;20396;-82
2022/10/29 08:30:30;;;;;;;1.57;0.60;;;21.20;47.30;;;;;;4998692;28;20395;-80
2022/10/29 08:32:57;;;;;;;1.70;0.70;;;21.10;47.70;;;;;;4997720;28;20385;-78
2022/10/29 08:35:26;;;;;;;2.22;0.80;;;21.00;47.80;;;;;;4999634;28;20389;-81
2022/10/29 08:37:53;;;;;;;1.02;0.70;;;20.90;47.90;;;;;;4996388;28;20405;-80
2022/10/29 08:40:45;;;;;;;1.40;0.70;;;20.90;48.10;;;;;;4999465;28;20400;-84
2022/10/29 08:43:47;;;;;;;2.58;0.70;;;20.80;48.50;;;;;;4985703;28;20380;-84
2022/10/29 08:46:40;;;;;;;1.47;0.60;;;20.70;48.30;;;;;;4996464;28;20975;-88
2022/10/29 08:49:21;;;;;;;2.92;0.80;;;20.60;48.20;;;;;;4995241;28;20501;-93
2022/10/29 08:51:55;;;;;;;1.95;0.70;;;20.60;48.80;;;;;;4969946;28;20424;-77
2022/10/29 08:54:24;;;;;;;3.28;0.75;;;20.50;48.60;;;;;;4978056;28;20393;-79
2022/10/29 08:56:56;;;;;;;1.50;0.70;;;20.40;48.60;;;;;;5004014;28;20424;-85
2022/10/29 08:59:27;;;;;;;2.00;0.70;;;20.50;48.80;;;;;;4993362;28;20421;-81
2022/10/29 09:01:55;;;;;;;1.90;0.80;;;20.40;48.50;;;;;;5024051;28;20384;-77
2022/10/29 09:04:35;;;;;;;2.85;0.70;;;20.40;48.40;;;;;;5011412;28;20388;-81
2022/10/29 09:07:18;;;;;;;2.90;0.70;;;20.30;49.00;;;;;;4996480;28;20387;-82
2022/10/29 09:10:10;;;;;;;2.83;0.75;;;20.20;48.80;;;;;;5006076;28;20385;-80
2022/10/29 09:12:50;;;;;;;2.13;0.60;;;20.10;48.90;;;;;;5003849;28;21318;-77
2022/10/29 09:15:24;;;;;;;2.00;0.70;;;20.20;48.90;;;;;;5003234;28;20420;-79
2022/10/29 09:18:29;;;;;;;1.30;0.70;;;20.10;48.80;;;;;;5003394;28;20477;-78
2022/10/29 09:21:11;;;;;;;1.30;0.73;;;20.00;49.60;;;;;;4996524;28;20380;-81
2022/10/29 09:23:56;;;;;;;2.40;0.82;;;19.90;48.90;;;;;;5003712;28;20755;-80
2022/10/29 09:26:31;;;;;;;3.05;1.05;;;19.80;50.40;;;;;;5013898;28;21049;-80
2022/10/29 09:29:04;;;;;;;2.30;1.00;;;19.80;50.90;;;;;;4997001;28;20396;-92
2022/10/29 09:31:38;;;;;;;1.65;1.00;;;19.80;51.30;;;;;;4996721;28;20385;-81
2022/10/29 09:34:22;;;;;;;1.58;1.40;;;19.60;51.60;;;;;;4998490;28;20444;-80
2022/10/29 09:36:49;;;;;;;1.60;1.13;;;19.50;51.80;;;;;;4992333;28;20405;-80
2022/10/29 09:39:33;;;;;;;2.70;0.98;;;19.50;51.40;;;;;;4994660;28;20765;-88
2022/10/29 09:42:04;;;;;;;2.70;1.85;;;19.50;51.40;;;;;;4995842;28;20475;-93
2022/10/29 09:44:39;;;;;;;3.05;2.00;;;19.50;51.80;;;;;;4996337;28;20381;-80
2022/10/29 09:47:39;;;;;;;3.45;1.20;;;19.40;51.50;;;;;;4995623;28;20385;-78
2022/10/29 09:50:14;;;;;;;3.80;0.80;;;19.40;51.40;;;;;;4994303;28;20420;-83
2022/10/29 09:52:43;;;;;;;1.25;0.63;;;19.50;51.70;;;;;;4994998;28;20380;-82
2022/10/29 09:55:24;;;;;;;2.10;0.88;;;19.50;51.40;;;;;;4994212;28;20480;-93
2022/10/29 09:57:54;;;;;;;2.85;0.80;;;19.40;51.60;;;;;;4994737;28;20404;-79
2022/10/29 10:00:27;;;;;;;2.08;0.95;;;19.40;51.70;;;;;;4995723;28;20385;-80
2022/10/29 10:03:03;;;;;;;3.75;1.20;;;19.40;52.00;;;;;;4993790;28;20500;-85
2022/10/29 10:05:32;;;;;;;3.43;0.73;;;19.30;52.60;;;;;;4995012;28;20384;-89
2022/10/29 10:08:08;;;;;;;2.25;0.85;;;19.20;52.40;;;;;;4994036;28;20428;-80
2022/10/29 10:10:58;;;;;;;2.13;0.88;;;19.20;52.90;;;;;;4994540;28;20393;-90
2022/10/29 10:13:29;;;;;;;1.60;0.80;;;19.00;53.30;;;;;;4993179;28;20873;-79
2022/10/29 10:16:02;;;;;;;1.90;0.80;;;19.00;53.40;;;;;;4994565;28;20400;-81
2022/10/29 10:18:32;;;;;;;2.22;0.90;;;19.00;53.80;;;;;;4993697;28;20896;-79
2022/10/29 10:21:23;;;;;;;2.15;0.82;;;18.80;54.00;;;;;;4992268;28;20420;-82
2022/10/29 10:23:56;;;;;;;2.60;0.80;;;18.70;55.00;;;;;;4991946;28;20393;-88
2022/10/29 10:26:29;;;;;;;2.17;0.80;;;18.60;54.90;;;;;;4991977;28;20385;-81
2022/10/29 10:29:22;;;;;;;2.40;0.90;;;18.60;55.00;;;;;;4990618;28;20396;-81
2022/10/29 10:31:50;;;;;;;3.30;0.90;;;18.60;55.20;;;;;;4985589;28;20381;-88
2022/10/29 10:34:21;;;;;;;1.92;1.10;;;18.60;55.50;;;;;;4992572;28;20385;-88
2022/10/29 10:37:02;;;;;;;2.30;1.00;;;18.60;55.40;;;;;;4991622;28;20963;-88
2022/10/29 10:39:34;;;;;;;1.77;1.00;;;18.60;55.80;;;;;;4991829;28;20409;-85
2022/10/29 10:42:33;;;;;;;2.53;0.93;;;18.60;55.70;;;;;;4992380;28;20443;-87
2022/10/29 10:45:22;;;;;;;1.90;0.90;;;18.50;56.00;;;;;;4950216;29;20808;-80
2022/10/29 10:47:57;;;;;;;3.63;1.00;;;18.40;56.00;;;;;;4974919;28;20444;-82
2022/10/29 10:50:32;;;;;;;3.27;0.90;;;18.40;56.90;;;;;;4952198;28;20414;-90
2022/10/29 10:53:23;;;;;;;1.98;0.82;;;18.40;57.10;;;;;;4957473;28;20415;-85
2022/10/29 10:55:58;;;;;;;3.73;0.97;;;18.30;56.80;;;;;;4950187;29;20511;-87
2022/10/29 10:58:39;;;;;;;1.55;0.80;;;18.30;56.90;;;;;;4935482;29;20451;-85
2022/10/29 11:01:11;;;;;;;1.50;0.73;;;18.30;57.30;;;;;;4950817;28;20486;-85
2022/10/29 11:03:45;;;;;;;2.35;0.85;;;18.20;58.00;;;;;;4950194;28;20400;-81
2022/10/29 11:06:15;;;;;;;4.15;1.00;;;18.10;58.00;;;;;;4950932;29;20384;-80
2022/10/29 11:09:05;;;;;;;2.33;0.80;;;18.10;58.30;;;;;;4949958;28;20479;-84
2022/10/29 11:11:44;;;;;;;1.67;0.80;;;18.00;58.20;;;;;;4939910;29;20904;-87
2022/10/29 11:14:33;;;;;;;1.48;0.88;;;18.00;58.50;;;;;;4951295;29;20399;-88
2022/10/29 11:17:07;;;;;;;1.75;0.80;;;17.90;59.10;;;;;;4950878;29;20424;-85
2022/10/29 11:19:44;;;;;;;2.30;1.17;;;18.00;58.30;;;;;;4951237;29;20376;-87
2022/10/29 11:22:23;;;;;;;2.58;0.98;;;18.00;58.40;;;;;;4976448;28;20480;-82
2022/10/29 11:25:11;;;;;;;4.38;0.90;;;18.00;59.20;;;;;;4975831;28;20864;-84
2022/10/29 11:27:54;;;;;;;3.00;0.93;;;17.90;59.50;;;;;;4991180;28;20392;-84
2022/10/29 11:30:21;;;;;;;2.45;0.90;;;17.80;59.80;;;;;;4992015;28;20373;-87
2022/10/29 11:33:09;;;;;;;2.38;1.00;;;17.80;60.50;;;;;;4990683;28;20785;-85
2022/10/29 11:35:45;;;;;;;2.00;0.98;;;17.80;60.40;;;;;;4990779;28;20400;-81
2022/10/29 11:38:42;;;;;;;3.20;1.00;;;17.80;59.70;;;;;;4991181;28;20409;-89
2022/10/29 11:41:38;;;;;;;2.95;1.23;;;17.80;59.60;;;;;;4990407;28;20412;-82
2022/10/29 11:44:13;;;;;;;2.03;1.33;;;17.80;60.20;;;;;;5007232;28;20377;-86
2022/10/29 11:46:53;;;;;;;3.00;1.50;;;17.80;60.30;;;;;;4993183;28;20384;-82
2022/10/29 11:49:41;;;;;;;3.50;1.60;;;17.80;60.30;;;;;;4992851;28;20377;-78
2022/10/29 11:52:18;;;;;;;3.28;1.45;;;17.80;60.90;;;;;;4993370;28;20381;-82
2022/10/29 11:55:04;;;;;;;4.47;1.40;;;17.90;60.40;;;;;;4992086;28;20388;-84
2022/10/29 11:57:45;;;;;;;4.95;1.42;;;17.90;60.80;;;;;;4993953;28;20409;-81
2022/10/29 12:00:25;;;;;;;3.38;1.30;;;17.80;61.40;;;;;;4993816;28;20373;-80
2022/10/29 12:03:27;;;;;;;3.58;1.13;;;17.80;61.30;;;;;;4993223;28;20389;-87
2022/10/29 12:06:14;;;;;;;4.57;1.20;;;17.80;61.00;;;;;;4989938;28;20389;-81
2022/10/29 12:09:06;;;;;;;3.05;1.20;;;17.80;61.50;;;;;;4992423;28;20753;-87
2022/10/29 12:11:55;;;;;;;3.13;1.30;;;17.70;61.70;;;;;;4993734;28;20800;-86
2022/10/29 12:14:46;;;;;;;2.40;1.33;;;17.70;62.10;;;;;;4991922;28;20385;-81
2022/10/29 12:17:27;;;;;;;1.90;1.00;;;17.60;62.70;;;;;;4980782;28;20800;-85
2022/10/29 12:20:15;;;;;;;2.17;1.10;;;17.60;62.60;;;;;;4993920;28;20424;-89
2022/10/29 12:22:57;;;;;;;3.85;1.30;;;17.60;62.40;;;;;;4994100;28;20385;-88
2022/10/29 12:25:39;;;;;;;2.20;1.07;;;17.60;62.70;;;;;;4993709;28;20369;-88
2022/10/29 12:28:33;;;;;;;3.00;1.20;;;17.60;62.70;;;;;;4992331;28;20967;-81
2022/10/29 12:31:00;;;;;;;2.50;1.50;;;17.50;62.60;;;;;;4991142;28;20399;-81
2022/10/29 12:33:43;;;;;;;6.00;2.50;;;17.40;63.00;;;;;;4990905;28;20396;-87
2022/10/29 12:36:34;;;;;;;3.88;1.98;;;17.20;63.40;;;;;;4992276;28;20385;-82
2022/10/29 12:39:04;;;;;;;3.67;1.70;;;17.00;64.30;;;;;;4991289;28;20411;-82
2022/10/29 12:41:52;;;;;;;3.30;1.23;;;16.90;64.60;;;;;;4995495;28;20416;-82
2022/10/29 12:44:45;;;;;;;2.42;1.10;;;16.90;65.70;;;;;;4995285;28;20861;-87
2022/10/29 12:47:12;;;;;;;2.72;1.50;;;16.90;66.50;;;;;;4975422;28;20390;-81
2022/10/29 12:49:51;;;;;;;2.50;1.30;;;16.90;66.80;;;;;;4974524;28;20442;-83
2022/10/29 12:52:48;;;;;;;2.50;1.30;;;16.90;66.70;;;;;;4974371;28;20519;-84
2022/10/29 12:55:17;;;;;;;4.07;1.45;;;16.90;66.90;;;;;;4974443;28;20409;-84
2022/10/29 12:57:44;;;;;;;4.53;1.40;;;16.90;67.60;;;;;;4975285;28;20506;-86
2022/10/29 13:00:23;;;;;;;2.30;1.30;;;16.80;68.10;;;;;;4973381;28;20402;-81
2022/10/29 13:02:51;;;;;;;4.72;2.90;;;16.70;68.50;;;;;;4974584;28;20933;-82
2022/10/29 13:05:27;;;;;;;5.80;1.88;;;16.70;68.60;;;;;;4974408;28;20409;-84
2022/10/29 13:08:21;;;;;;;1.98;1.00;;;16.70;68.00;;;;;;4975438;28;20399;-82
2022/10/29 13:10:53;;;;;;;2.47;0.93;;;16.70;67.60;;;;;;4933640;29;20931;-88
2022/10/29 13:13:38;;;;;;;2.60;1.02;;;16.70;67.70;;;;;;4935687;29;20936;-88
2022/10/29 13:16:19;;;;;;;3.08;1.00;;;16.60;68.10;;;;;;4944880;29;20449;-80
2022/10/29 13:18:52;;;;;;;2.60;1.00;;;16.60;68.20;;;;;;4935202;29;20414;-82
2022/10/29 13:21:58;;;;;;;2.25;0.90;;;16.60;68.30;;;;;;4934810;29;20409;-81